createdAt,value
2023-03-20T00:00:09.667Z,8.5
2023-03-20T00:01:18.596Z,8.5
2023-03-20T00:02:28.136Z,8.3
2023-03-20T00:03:34.961Z,8.4
2023-03-20T00:04:41.913Z,8.3
2023-03-20T00:05:48.762Z,8.3
2023-03-20T00:06:55.578Z,8.3
2023-03-20T00:08:02.422Z,8.3
2023-03-20T00:09:09.375Z,8.3
2023-03-20T00:10:16.355Z,8.3
2023-03-20T00:11:23.274Z,8.4
2023-03-20T00:12:30.086Z,8.3
2023-03-20T00:13:36.904Z,8.3
2023-03-20T00:14:43.736Z,8.3
2023-03-20T00:15:50.563Z,8.3
2023-03-20T00:16:57.435Z,8.4
2023-03-20T00:18:04.242Z,8.4
2023-03-20T00:19:16.255Z,8.4
2023-03-20T00:20:24.550Z,8.4
2023-03-20T00:21:31.344Z,8.5
2023-03-20T00:22:38.238Z,8.4
2023-03-20T00:23:45.038Z,8.4
2023-03-20T00:24:51.902Z,8.4
2023-03-20T00:25:58.901Z,8.4
2023-03-20T00:27:05.676Z,8.5
2023-03-20T00:28:12.519Z,8.4
2023-03-20T00:29:29.428Z,8.5
2023-03-20T00:30:36.811Z,8.5
2023-03-20T00:31:43.663Z,8.4
2023-03-20T00:32:50.564Z,8.4
2023-03-20T00:33:57.347Z,8.4
2023-03-20T00:35:06.025Z,8.4
2023-03-20T00:36:20.762Z,8.4
2023-03-20T00:37:27.443Z,8.5
2023-03-20T00:38:34.299Z,8.4
2023-03-20T00:39:41.119Z,8.6
2023-03-20T00:40:47.967Z,8.5
2023-03-20T00:41:54.734Z,8.4
2023-03-20T00:43:04.558Z,8.5
2023-03-20T00:44:11.365Z,8.5
2023-03-20T00:45:26.339Z,8.5
2023-03-20T00:46:33.212Z,8.5
2023-03-20T00:47:40.116Z,8.6
2023-03-20T00:48:46.936Z,8.6
2023-03-20T00:49:53.707Z,8.6
2023-03-20T00:51:01.553Z,8.7
2023-03-20T00:52:08.617Z,8.7
2023-03-20T00:53:18.279Z,8.7
2023-03-20T00:54:25.124Z,8.8
2023-03-20T00:55:32.849Z,8.8
2023-03-20T00:56:39.556Z,8.8
2023-03-20T00:57:48.503Z,8.8
2023-03-20T00:58:55.343Z,8.6
2023-03-20T01:00:02.239Z,8.4
2023-03-20T01:01:17.051Z,8.4
2023-03-20T01:02:23.974Z,8.5
2023-03-20T01:03:30.633Z,8.5
2023-03-20T01:04:37.519Z,8.4
2023-03-20T01:05:44.319Z,8.5
2023-03-20T01:06:51.073Z,8.5
2023-03-20T01:07:57.936Z,8.6
2023-03-20T01:09:04.775Z,8.7
2023-03-20T01:10:11.557Z,8.7
2023-03-20T01:11:18.401Z,8.8
2023-03-20T01:12:25.182Z,8.8
2023-03-20T01:13:32.041Z,8.8
2023-03-20T01:14:38.932Z,8.7
2023-03-20T01:15:45.816Z,8.7
2023-03-20T01:16:52.777Z,8.6
2023-03-20T01:17:59.528Z,8.6
2023-03-20T01:19:06.270Z,8.6
2023-03-20T01:20:15.988Z,8.5
2023-03-20T01:21:31.044Z,8.4
2023-03-20T01:22:38.178Z,8.4
2023-03-20T01:23:47.627Z,8.3
2023-03-20T01:24:54.363Z,8.4
2023-03-20T01:26:01.173Z,8.4
2023-03-20T01:27:08.179Z,8.3
2023-03-20T01:28:15.059Z,8.3
2023-03-20T01:29:24.922Z,8.3
2023-03-20T01:30:31.885Z,8.3
2023-03-20T01:31:38.665Z,8.3
2023-03-20T01:32:45.575Z,8.3
2023-03-20T01:33:52.461Z,8.3
2023-03-20T01:34:59.476Z,8.3
2023-03-20T01:36:06.387Z,8.3
2023-03-20T01:37:15.942Z,8.3
2023-03-20T01:38:27.890Z,8.3
2023-03-20T01:39:34.827Z,8.3
2023-03-20T01:40:42.920Z,8.4
2023-03-20T01:41:54.737Z,8.3
2023-03-20T01:43:01.509Z,8.3
2023-03-20T01:44:08.295Z,8.4
2023-03-20T01:45:20.933Z,8.3
2023-03-20T01:46:27.790Z,8.4
2023-03-20T01:47:34.564Z,8.5
2023-03-20T01:48:41.442Z,8.4
2023-03-20T01:49:53.359Z,8.5
2023-03-20T01:51:08.509Z,8.5
2023-03-20T01:52:15.386Z,8.5
2023-03-20T01:53:22.236Z,8.4
2023-03-20T01:54:29.141Z,8.4
2023-03-20T01:55:36.379Z,8.5
2023-03-20T01:56:42.744Z,8.4
2023-03-20T01:57:56.141Z,8.5
2023-03-20T01:59:02.956Z,8.5
2023-03-20T02:00:10.644Z,8.6
2023-03-20T02:01:19.358Z,8.5
2023-03-20T02:02:26.081Z,8.5
2023-03-20T02:03:32.968Z,8.4
2023-03-20T02:04:39.988Z,8.5
2023-03-20T02:05:46.876Z,8.5
2023-03-20T02:06:58.598Z,8.4
2023-03-20T02:08:05.357Z,8.5
2023-03-20T02:09:14.970Z,8.5
2023-03-20T02:10:21.749Z,8.5
2023-03-20T02:11:28.605Z,8.6
2023-03-20T02:12:35.443Z,8.7
2023-03-20T02:13:42.376Z,8.6
2023-03-20T02:14:49.934Z,8.7
2023-03-20T02:15:57.539Z,8.7
2023-03-20T02:17:09.660Z,8.7
2023-03-20T02:18:16.424Z,8.7
2023-03-20T02:19:25.139Z,8.7
2023-03-20T02:20:34.771Z,8.7
2023-03-20T02:21:51.654Z,8.8
2023-03-20T02:23:01.052Z,8.8
2023-03-20T02:24:17.915Z,8.8
2023-03-20T02:25:32.900Z,8.8
2023-03-20T02:26:49.714Z,8.8
2023-03-20T02:27:59.466Z,8.7
2023-03-20T02:29:14.071Z,8.8
2023-03-20T02:30:25.879Z,8.7
2023-03-20T02:31:42.785Z,8.8
2023-03-20T02:32:57.437Z,8.7
2023-03-20T02:34:13.555Z,8.6
2023-03-20T02:35:28.219Z,8.5
2023-03-20T02:36:40.046Z,8.4
2023-03-20T02:37:56.954Z,8.4
2023-03-20T02:39:06.796Z,8.5
2023-03-20T02:40:23.682Z,8.5
2023-03-20T02:41:36.624Z,8.6
2023-03-20T02:42:53.559Z,8.6
2023-03-20T02:44:10.491Z,8.6
2023-03-20T02:45:22.354Z,8.6
2023-03-20T02:46:30.144Z,8.5
2023-03-20T02:47:44.623Z,8.4
2023-03-20T02:48:51.357Z,8.2
2023-03-20T02:50:06.111Z,8.2
2023-03-20T02:51:17.671Z,8.3
2023-03-20T02:52:29.565Z,8.3
2023-03-20T02:53:40.503Z,8.3
2023-03-20T02:54:55.419Z,8.2
2023-03-20T02:56:10.366Z,8.3
2023-03-20T02:57:24.895Z,8.3
2023-03-20T02:58:34.599Z,8.4
2023-03-20T02:59:49.314Z,8.3
2023-03-20T03:00:59.180Z,8.3
2023-03-20T03:02:13.846Z,8.2
2023-03-20T03:03:20.676Z,8.3
2023-03-20T03:04:27.542Z,8.3
2023-03-20T03:05:35.387Z,8.2
2023-03-20T03:06:47.114Z,8.2
2023-03-20T03:07:53.974Z,8.2
2023-03-20T03:09:01.652Z,8.2
2023-03-20T03:10:19.806Z,8.4
2023-03-20T03:11:32.559Z,8.4
2023-03-20T03:12:39.399Z,8.5
2023-03-20T03:13:46.227Z,8.5
2023-03-20T03:14:53.119Z,8.5
2023-03-20T03:15:59.979Z,8.5
2023-03-20T03:17:06.800Z,8.3
2023-03-20T03:18:13.645Z,8.2
2023-03-20T03:19:23.545Z,8.2
2023-03-20T03:20:30.342Z,8.2
2023-03-20T03:21:38.313Z,8.3
2023-03-20T03:22:45.187Z,8.2
2023-03-20T03:23:52.879Z,8.3
2023-03-20T03:24:59.728Z,8.4
2023-03-20T03:26:06.601Z,8.4
2023-03-20T03:27:13.337Z,8.4
2023-03-20T03:28:27.864Z,8.5
2023-03-20T03:29:35.499Z,8.4
2023-03-20T03:30:42.265Z,8.4
2023-03-20T03:31:49.039Z,8.4
2023-03-20T03:32:55.931Z,8.3
2023-03-20T03:34:12.753Z,8.4
2023-03-20T03:35:19.523Z,8.3
2023-03-20T03:36:26.522Z,8.3
2023-03-20T03:37:36.436Z,8.3
2023-03-20T03:38:51.146Z,8.2
2023-03-20T03:40:08.210Z,8.1
2023-03-20T03:41:20.135Z,8.2
2023-03-20T03:42:34.978Z,8.3
2023-03-20T03:43:46.954Z,8.3
2023-03-20T03:45:01.819Z,8.3
2023-03-20T03:46:15.456Z,8.3
2023-03-20T03:47:30.346Z,8.3
2023-03-20T03:48:47.274Z,8.4
2023-03-20T03:49:54.064Z,8.4
2023-03-20T03:51:05.954Z,8.4
2023-03-20T03:52:13.985Z,8.3
2023-03-20T03:53:23.809Z,8.3
2023-03-20T03:54:33.559Z,8.2
2023-03-20T03:55:48.459Z,8.1
2023-03-20T03:56:55.242Z,8
2023-03-20T03:58:02.070Z,8
2023-03-20T03:59:13.914Z,8
2023-03-20T04:00:28.665Z,8
2023-03-20T04:01:35.610Z,8
2023-03-20T04:02:42.319Z,8
2023-03-20T04:03:49.120Z,7.8
2023-03-20T04:04:55.940Z,7.8
2023-03-20T04:06:02.801Z,7.9
2023-03-20T04:07:09.717Z,7.8
2023-03-20T04:08:16.523Z,7.7
2023-03-20T04:09:23.288Z,7.8
2023-03-20T04:10:32.157Z,7.9
2023-03-20T04:11:39.003Z,7.8
2023-03-20T04:12:46.710Z,7.8
2023-03-20T04:13:53.618Z,7.8
2023-03-20T04:15:02.937Z,7.8
2023-03-20T04:16:07.379Z,7.9
2023-03-20T04:17:16.772Z,7.8
2023-03-20T04:18:23.545Z,7.8
2023-03-20T04:19:31.435Z,7.8
2023-03-20T04:20:38.198Z,7.8
2023-03-20T04:21:45.183Z,7.8
2023-03-20T04:22:52.028Z,7.7
2023-03-20T04:23:58.856Z,7.8
2023-03-20T04:25:05.669Z,7.7
2023-03-20T04:26:12.602Z,7.8
2023-03-20T04:27:19.391Z,7.8
2023-03-20T04:28:26.188Z,7.9
2023-03-20T04:29:32.972Z,7.9
2023-03-20T04:30:39.765Z,7.9
2023-03-20T04:31:46.631Z,7.9
2023-03-20T04:32:53.515Z,7.8
2023-03-20T04:34:00.303Z,7.8
2023-03-20T04:35:07.106Z,7.9
2023-03-20T04:36:14.813Z,7.9
2023-03-20T04:37:23.155Z,7.9
2023-03-20T04:38:30.689Z,8
2023-03-20T04:39:39.278Z,8
2023-03-20T04:40:46.868Z,8
2023-03-20T04:41:53.705Z,8
2023-03-20T04:43:00.519Z,8
2023-03-20T04:44:07.660Z,7.9
2023-03-20T04:45:15.366Z,7.9
2023-03-20T04:46:24.234Z,7.8
2023-03-20T04:47:31.110Z,7.6
2023-03-20T04:48:37.984Z,7.6
2023-03-20T04:49:44.851Z,7.6
2023-03-20T04:50:51.610Z,7.5
2023-03-20T04:52:03.467Z,7.6
2023-03-20T04:53:10.824Z,7.6
2023-03-20T04:54:17.787Z,7.5
2023-03-20T04:55:24.707Z,7.5
2023-03-20T04:56:31.690Z,7.6
2023-03-20T04:57:40.386Z,7.6
2023-03-20T04:58:47.195Z,7.7
2023-03-20T04:59:53.999Z,7.6
2023-03-20T05:01:01.830Z,7.6
2023-03-20T05:02:08.757Z,7.6
2023-03-20T05:03:15.799Z,7.6
2023-03-20T05:04:22.827Z,7.5
2023-03-20T05:05:29.648Z,7.7
2023-03-20T05:06:36.449Z,7.6
2023-03-20T05:07:43.275Z,7.7
2023-03-20T05:08:51.090Z,7.8
2023-03-20T05:09:57.982Z,7.8
2023-03-20T05:11:07.117Z,7.7
2023-03-20T05:12:15.889Z,7.8
2023-03-20T05:13:22.933Z,7.8
2023-03-20T05:14:31.560Z,7.8
2023-03-20T05:15:38.527Z,7.8
2023-03-20T05:16:47.405Z,7.8
2023-03-20T05:17:54.281Z,7.8
2023-03-20T05:19:01.272Z,7.8
2023-03-20T05:20:09.124Z,7.8
2023-03-20T05:21:17.012Z,7.8
2023-03-20T05:22:27.917Z,7.8
2023-03-20T05:23:34.719Z,7.8
2023-03-20T05:24:41.473Z,7.7
2023-03-20T05:25:49.043Z,7.7
2023-03-20T05:26:57.380Z,7.8
2023-03-20T05:28:04.290Z,7.8
2023-03-20T05:29:11.083Z,7.8
2023-03-20T05:30:17.848Z,7.9
2023-03-20T05:31:26.964Z,7.9
2023-03-20T05:32:33.750Z,8
2023-03-20T05:33:40.657Z,8
2023-03-20T05:34:47.884Z,7.9
2023-03-20T05:35:54.794Z,8
2023-03-20T05:37:01.642Z,8
2023-03-20T05:38:11.223Z,7.9
2023-03-20T05:39:18.053Z,7.8
2023-03-20T05:40:24.952Z,7.8
2023-03-20T05:41:32.705Z,7.9
2023-03-20T05:42:39.651Z,7.9
2023-03-20T05:43:46.583Z,7.8
2023-03-20T05:44:53.603Z,7.9
2023-03-20T05:46:01.192Z,7.9
2023-03-20T05:47:10.371Z,7.9
2023-03-20T05:48:17.156Z,8
2023-03-20T05:49:24.850Z,8
2023-03-20T05:50:31.850Z,8
2023-03-20T05:51:38.734Z,7.9
2023-03-20T05:52:46.203Z,8
2023-03-20T05:53:56.516Z,8
2023-03-20T05:55:03.343Z,8
2023-03-20T05:56:13.619Z,8
2023-03-20T05:57:21.337Z,7.9
2023-03-20T05:58:29.112Z,7.9
2023-03-20T05:59:36.083Z,7.9
2023-03-20T06:00:42.950Z,7.9
2023-03-20T06:01:53.747Z,7.9
2023-03-20T06:03:00.661Z,8
2023-03-20T06:04:07.481Z,8
2023-03-20T06:05:14.662Z,7.9
2023-03-20T06:06:22.890Z,8
2023-03-20T06:07:29.816Z,8.1
2023-03-20T06:08:36.823Z,8
2023-03-20T06:09:43.742Z,8
2023-03-20T06:10:52.997Z,7.9
2023-03-20T06:12:02.515Z,7.9
2023-03-20T06:13:09.554Z,8
2023-03-20T06:14:17.366Z,7.9
2023-03-20T06:15:24.246Z,7.8
2023-03-20T06:16:31.223Z,7.9
2023-03-20T06:17:41.950Z,8
2023-03-20T06:18:48.866Z,7.9
2023-03-20T06:19:55.804Z,8
2023-03-20T06:21:03.971Z,8
2023-03-20T06:22:12.290Z,8
2023-03-20T06:23:21.228Z,8
2023-03-20T06:24:31.485Z,8.1
2023-03-20T06:25:40.339Z,8
2023-03-20T06:26:50.595Z,8.1
2023-03-20T06:27:57.490Z,8.1
2023-03-20T06:29:05.111Z,8.2
2023-03-20T06:30:12.758Z,8.2
2023-03-20T06:31:20.788Z,8
2023-03-20T06:32:27.773Z,8.1
2023-03-20T06:33:34.690Z,8.1
2023-03-20T06:34:41.585Z,8.2
2023-03-20T06:35:49.866Z,8.3
2023-03-20T06:36:56.684Z,8.2
2023-03-20T06:38:08.989Z,8.3
2023-03-20T06:39:15.909Z,8.3
2023-03-20T06:40:23.918Z,8.4
2023-03-20T06:41:34.819Z,8.4
2023-03-20T06:42:43.869Z,8.4
2023-03-20T06:43:51.606Z,8.4
2023-03-20T06:45:00.280Z,8.3
2023-03-20T06:46:07.628Z,8.3
2023-03-20T06:47:14.478Z,8.4
2023-03-20T06:48:24.063Z,8.3
2023-03-20T06:49:31.171Z,8.3
2023-03-20T06:50:38.070Z,8.4
2023-03-20T06:51:44.923Z,8.2
2023-03-20T06:52:51.866Z,8.2
2023-03-20T06:53:58.671Z,8.2
2023-03-20T06:55:05.425Z,8.4
2023-03-20T06:56:13.573Z,8.4
2023-03-20T06:57:20.508Z,8.4
2023-03-20T06:58:27.522Z,8.5
2023-03-20T06:59:37.312Z,8.4
2023-03-20T07:00:44.534Z,8.4
2023-03-20T07:01:51.425Z,8.5
2023-03-20T07:03:01.094Z,8.5
2023-03-20T07:04:06.382Z,8.5
2023-03-20T07:05:13.259Z,8.5
2023-03-20T07:06:20.319Z,8.5
2023-03-20T07:07:27.154Z,8.5
2023-03-20T07:08:35.169Z,8.5
2023-03-20T07:09:41.318Z,8.5
2023-03-20T07:10:48.241Z,8.6
2023-03-20T07:11:55.114Z,8.6
2023-03-20T07:13:02.048Z,8.6
2023-03-20T07:14:08.900Z,8.7
2023-03-20T07:15:15.756Z,8.7
2023-03-20T07:16:23.554Z,8.7
2023-03-20T07:17:30.295Z,8.7
2023-03-20T07:18:37.188Z,8.6
2023-03-20T07:19:44.858Z,8.6
2023-03-20T07:20:51.875Z,8.7
2023-03-20T07:21:58.876Z,8.6
2023-03-20T07:23:09.816Z,8.7
2023-03-20T07:24:16.966Z,8.7
2023-03-20T07:25:35.609Z,8.8
2023-03-20T07:26:32.461Z,8.8
2023-03-20T07:27:40.501Z,8.8
2023-03-20T07:28:50.407Z,8.9
2023-03-20T07:29:57.274Z,8.9
2023-03-20T07:31:04.231Z,8.8
2023-03-20T07:32:13.165Z,8.9
2023-03-20T07:33:21.502Z,8.8
2023-03-20T07:34:28.281Z,8.7
2023-03-20T07:35:35.465Z,8.7
2023-03-20T07:36:43.123Z,8.7
2023-03-20T07:37:50.159Z,8.8
2023-03-20T07:38:57.082Z,8.8
2023-03-20T07:40:04.769Z,8.7
2023-03-20T07:41:11.985Z,8.8
2023-03-20T07:42:23.588Z,8.7
2023-03-20T07:43:33.153Z,8.7
2023-03-20T07:44:40.142Z,8.7
2023-03-20T07:45:46.915Z,8.6
2023-03-20T07:46:53.749Z,8.7
2023-03-20T07:48:00.714Z,8.7
2023-03-20T07:49:08.317Z,8.6
2023-03-20T07:50:15.162Z,8.6
2023-03-20T07:51:22.106Z,8.7
2023-03-20T07:52:28.987Z,8.7
2023-03-20T07:53:35.890Z,8.7
2023-03-20T07:54:43.709Z,8.8
2023-03-20T07:55:50.589Z,8.9
2023-03-20T07:56:57.498Z,8.6
2023-03-20T07:58:04.456Z,8.6
2023-03-20T07:59:11.422Z,8.7
2023-03-20T08:00:19.864Z,8.7
2023-03-20T08:01:26.726Z,8.8
2023-03-20T08:02:36.158Z,8.8
2023-03-20T08:03:43.861Z,8.8
2023-03-20T08:04:52.283Z,8.6
2023-03-20T08:05:59.086Z,8.8
2023-03-20T08:07:05.929Z,8.9
2023-03-20T08:08:12.933Z,8.8
2023-03-20T08:09:19.760Z,8.8
2023-03-20T08:10:26.732Z,8.8
2023-03-20T08:11:34.896Z,8.7
2023-03-20T08:12:43.069Z,8.7
2023-03-20T08:13:49.869Z,8.7
2023-03-20T08:14:58.314Z,8.7
2023-03-20T08:16:05.256Z,8.7
2023-03-20T08:17:16.011Z,8.6
2023-03-20T08:18:20.463Z,8.6
2023-03-20T08:19:27.310Z,8.7
2023-03-20T08:20:36.287Z,8.6
2023-03-20T08:21:43.174Z,8.7
2023-03-20T08:22:50.103Z,8.7
2023-03-20T08:23:57.375Z,8.8
2023-03-20T08:25:04.464Z,8.7
2023-03-20T08:26:17.157Z,8.7
2023-03-20T08:27:24.901Z,8.8
2023-03-20T08:28:46.436Z,8.7
2023-03-20T08:29:40.957Z,8.7
2023-03-20T08:30:48.048Z,8.7
2023-03-20T08:31:55.073Z,8.8
2023-03-20T08:33:03.157Z,8.8
2023-03-20T08:34:10.209Z,8.8
2023-03-20T08:35:32.411Z,8.8
2023-03-20T08:36:26.623Z,8.9
2023-03-20T08:37:33.488Z,9
2023-03-20T08:38:41.801Z,8.9
2023-03-20T08:39:50.292Z,9
2023-03-20T08:40:57.191Z,9
2023-03-20T08:42:04.296Z,9
2023-03-20T08:43:13.189Z,9
2023-03-20T08:44:22.812Z,8.9
2023-03-20T08:45:29.768Z,9.1
2023-03-20T08:46:37.684Z,9.1
2023-03-20T08:47:44.536Z,9
2023-03-20T08:48:51.384Z,9
2023-03-20T08:50:02.372Z,9.1
2023-03-20T08:51:09.342Z,9.1
2023-03-20T08:52:17.987Z,9.2
2023-03-20T08:53:24.850Z,9.2
2023-03-20T08:54:31.731Z,9.2
2023-03-20T08:55:40.909Z,9.4
2023-03-20T08:56:53.183Z,9.3
2023-03-20T08:58:04.242Z,9.4
2023-03-20T08:59:11.127Z,9.4
2023-03-20T09:00:18.010Z,9.4
2023-03-20T09:01:30.353Z,9.4
2023-03-20T09:02:33.311Z,9.5
2023-03-20T09:03:40.506Z,9.5
2023-03-20T09:04:49.532Z,9.4
2023-03-20T09:05:56.586Z,9.5
2023-03-20T09:07:07.256Z,9.5
2023-03-20T09:08:17.059Z,9.6
2023-03-20T09:09:23.948Z,9.6
2023-03-20T09:10:30.933Z,9.7
2023-03-20T09:11:37.738Z,9.9
2023-03-20T09:12:44.619Z,10
2023-03-20T09:13:51.461Z,10.1
2023-03-20T09:14:58.323Z,10.3
2023-03-20T09:16:07.170Z,10.3
2023-03-20T09:17:13.998Z,10.4
2023-03-20T09:18:21.213Z,10.6
2023-03-20T09:19:30.707Z,10.7
2023-03-20T09:20:38.138Z,10.6
2023-03-20T09:21:45.667Z,10.8
2023-03-20T09:22:54.883Z,10.8
2023-03-20T09:24:01.943Z,10.8
2023-03-20T09:25:10.136Z,10.9
2023-03-20T09:26:21.005Z,11.1
2023-03-20T09:27:31.636Z,11
2023-03-20T09:28:39.047Z,11
2023-03-20T09:29:49.537Z,10.8
2023-03-20T09:31:03.278Z,10.9
2023-03-20T09:32:11.860Z,11
2023-03-20T09:33:21.589Z,11
2023-03-20T09:34:28.633Z,10.9
2023-03-20T09:35:35.902Z,11.1
2023-03-20T09:36:43.679Z,11.1
2023-03-20T09:37:51.436Z,11.1
2023-03-20T09:38:58.375Z,11
2023-03-20T09:40:05.428Z,11.1
2023-03-20T09:41:17.568Z,11
2023-03-20T09:42:24.523Z,11.1
2023-03-20T09:43:41.828Z,11
2023-03-20T09:44:59.168Z,11
2023-03-20T09:46:14.114Z,11
2023-03-20T09:47:29.806Z,11.1
2023-03-20T09:48:47.419Z,11.1
2023-03-20T09:49:57.356Z,11
2023-03-20T09:51:10.686Z,10.9
2023-03-20T09:52:23.780Z,11
2023-03-20T09:53:34.842Z,11
2023-03-20T09:54:53.913Z,11
2023-03-20T09:55:56.258Z,11.1
2023-03-20T09:57:04.147Z,11.2
2023-03-20T09:58:11.104Z,11.1
2023-03-20T09:59:27.028Z,11
2023-03-20T10:00:34.488Z,11
2023-03-20T10:01:41.099Z,11.1
2023-03-20T10:02:54.911Z,11.2
2023-03-20T10:04:05.007Z,11.2
2023-03-20T10:05:13.859Z,11.2
2023-03-20T10:06:25.859Z,11.2
2023-03-20T10:07:37.765Z,11.2
2023-03-20T10:08:45.747Z,11.2
2023-03-20T10:09:52.638Z,11.1
2023-03-20T10:11:00.316Z,11
2023-03-20T10:12:17.712Z,11
2023-03-20T10:13:24.749Z,11
2023-03-20T10:14:39.693Z,11.1
2023-03-20T10:15:57.092Z,11
2023-03-20T10:17:14.210Z,11.2
2023-03-20T10:18:28.889Z,11.2
2023-03-20T10:19:38.782Z,11.3
2023-03-20T10:20:50.839Z,11.3
2023-03-20T10:22:01.275Z,11.3
2023-03-20T10:23:16.194Z,11.2
2023-03-20T10:24:22.989Z,11.2
2023-03-20T10:25:38.251Z,11.2
2023-03-20T10:26:50.340Z,11.4
2023-03-20T10:27:57.260Z,11.3
2023-03-20T10:29:04.140Z,11.3
2023-03-20T10:30:11.001Z,11.4
2023-03-20T10:31:25.779Z,11.4
2023-03-20T10:32:35.419Z,11.5
2023-03-20T10:33:45.551Z,11.6
2023-03-20T10:35:02.851Z,11.9
2023-03-20T10:36:20.329Z,12
2023-03-20T10:37:37.576Z,12.1
2023-03-20T10:38:55.081Z,11.9
2023-03-20T10:40:05.958Z,12
2023-03-20T10:41:23.240Z,11.9
2023-03-20T10:42:30.062Z,12
2023-03-20T10:43:39.850Z,11.9
2023-03-20T10:44:44.594Z,12.1
2023-03-20T10:45:59.194Z,12.3
2023-03-20T10:47:11.200Z,12.3
2023-03-20T10:48:18.212Z,12.2
2023-03-20T10:49:37.008Z,12.3
2023-03-20T10:50:47.627Z,12.5
2023-03-20T10:51:54.776Z,12.6
2023-03-20T10:53:01.699Z,13
2023-03-20T10:54:08.456Z,13
2023-03-20T10:55:18.400Z,13.1
2023-03-20T10:56:29.033Z,13.2
2023-03-20T10:57:42.674Z,13.4
2023-03-20T10:58:52.532Z,13.5
2023-03-20T11:00:07.546Z,13.5
2023-03-20T11:01:17.229Z,13.6
2023-03-20T11:02:23.957Z,13.4
2023-03-20T11:03:31.681Z,13.6
2023-03-20T11:04:38.675Z,13.6
2023-03-20T11:05:52.682Z,13.6
2023-03-20T11:06:57.686Z,13.7
2023-03-20T11:08:07.215Z,13.6
2023-03-20T11:09:17.772Z,13.6
2023-03-20T11:10:25.576Z,13.6
2023-03-20T11:11:32.616Z,13.7
2023-03-20T11:12:39.509Z,13.6
2023-03-20T11:13:47.373Z,13.5
2023-03-20T11:14:54.209Z,13.6
2023-03-20T11:16:01.103Z,13.6
2023-03-20T11:17:14.585Z,13.4
2023-03-20T11:18:22.496Z,13.3
2023-03-20T11:19:32.213Z,13.5
2023-03-20T11:20:39.343Z,13.6
2023-03-20T11:21:54.085Z,13.7
2023-03-20T11:23:01.064Z,13.7
2023-03-20T11:24:11.649Z,13.8
2023-03-20T11:25:27.584Z,13.9
2023-03-20T11:26:37.478Z,13.9
2023-03-20T11:27:44.305Z,13.6
2023-03-20T11:28:51.140Z,13.7
2023-03-20T11:30:00.921Z,13.7
2023-03-20T11:31:09.612Z,13.7
2023-03-20T11:32:19.257Z,13.7
2023-03-20T11:33:35.074Z,13.8
2023-03-20T11:34:41.910Z,13.9
2023-03-20T11:35:49.491Z,13.8
2023-03-20T11:37:09.071Z,13.9
2023-03-20T11:38:05.022Z,14
2023-03-20T11:39:20.711Z,14
2023-03-20T11:40:27.642Z,14.2
2023-03-20T11:41:34.546Z,14.4
2023-03-20T11:42:49.694Z,14.4
2023-03-20T11:43:59.296Z,14.6
2023-03-20T11:45:09.055Z,14.2
2023-03-20T11:46:18.954Z,14
2023-03-20T11:47:25.769Z,14
2023-03-20T11:48:32.571Z,13.9
2023-03-20T11:49:44.311Z,13.8
2023-03-20T11:50:56.148Z,13.9
2023-03-20T11:52:06.159Z,14
2023-03-20T11:53:17.020Z,14
2023-03-20T11:54:29.029Z,14.2
2023-03-20T11:55:36.035Z,14.4
2023-03-20T11:56:42.832Z,14.3
2023-03-20T11:57:58.719Z,14.3
2023-03-20T11:59:05.595Z,14.5
2023-03-20T12:00:12.477Z,14.1
2023-03-20T12:01:25.177Z,14.3
2023-03-20T12:02:32.986Z,14.4
2023-03-20T12:03:39.884Z,14.5
2023-03-20T12:04:51.329Z,14.7
2023-03-20T12:05:58.259Z,14.5
2023-03-20T12:07:05.162Z,14.5
2023-03-20T12:08:16.479Z,14.8
2023-03-20T12:09:28.368Z,15
2023-03-20T12:10:45.588Z,15
2023-03-20T12:11:52.586Z,15.2
2023-03-20T12:13:09.765Z,15
2023-03-20T12:14:17.356Z,14.5
2023-03-20T12:15:29.308Z,14.8
2023-03-20T12:16:38.446Z,15
2023-03-20T12:17:45.371Z,15.3
2023-03-20T12:19:00.493Z,15.3
2023-03-20T12:20:07.347Z,15.7
2023-03-20T12:21:24.520Z,15.8
2023-03-20T12:22:37.396Z,15.8
2023-03-20T12:23:56.041Z,15.6
2023-03-20T12:25:07.636Z,15.5
2023-03-20T12:26:22.150Z,15.5
2023-03-20T12:27:33.539Z,15.5
2023-03-20T12:28:41.278Z,15.5
2023-03-20T12:29:48.090Z,15.6
2023-03-20T12:31:00.657Z,15.4
2023-03-20T12:32:08.718Z,15.3
2023-03-20T12:33:18.244Z,15
2023-03-20T12:34:26.114Z,15
2023-03-20T12:35:35.828Z,15
2023-03-20T12:36:42.703Z,14.6
2023-03-20T12:37:52.964Z,14.5
2023-03-20T12:38:59.856Z,14.5
2023-03-20T12:40:06.789Z,14.5
2023-03-20T12:41:20.327Z,14.5
2023-03-20T12:42:27.156Z,14.7
2023-03-20T12:43:39.084Z,14.6
2023-03-20T12:44:49.627Z,14.7
2023-03-20T12:46:04.717Z,14.7
2023-03-20T12:47:16.191Z,14.6
2023-03-20T12:48:31.325Z,14.6
2023-03-20T12:49:46.813Z,14.7
2023-03-20T12:50:58.805Z,14.7
2023-03-20T12:52:10.792Z,14.6
2023-03-20T12:53:27.194Z,14.5
2023-03-20T12:54:42.446Z,14.5
2023-03-20T12:56:00.579Z,14.4
2023-03-20T12:57:15.328Z,14.4
2023-03-20T12:58:25.236Z,14.2
2023-03-20T12:59:37.215Z,14.2
2023-03-20T13:00:46.858Z,14.1
2023-03-20T13:01:56.393Z,14.2
2023-03-20T13:03:12.364Z,14
2023-03-20T13:04:27.406Z,14
2023-03-20T13:05:45.580Z,14.1
2023-03-20T13:07:02.790Z,14.2
2023-03-20T13:08:09.645Z,14.2
2023-03-20T13:09:16.505Z,14.3
2023-03-20T13:10:28.618Z,14.2
2023-03-20T13:11:35.448Z,14.2
2023-03-20T13:12:48.325Z,14.2
2023-03-20T13:14:05.425Z,14.1
2023-03-20T13:15:14.551Z,14
2023-03-20T13:16:22.343Z,14
2023-03-20T13:17:34.222Z,13.9
2023-03-20T13:18:46.264Z,14.1
2023-03-20T13:20:04.279Z,14.1
2023-03-20T13:21:16.131Z,14.2
2023-03-20T13:22:22.994Z,14.1
2023-03-20T13:23:32.549Z,14.1
2023-03-20T13:24:47.086Z,14
2023-03-20T13:25:54.085Z,14.2
2023-03-20T13:27:11.277Z,14
2023-03-20T13:28:26.304Z,14.2
2023-03-20T13:29:41.313Z,14.2
2023-03-20T13:30:48.026Z,14.2
2023-03-20T13:32:02.711Z,14.2
2023-03-20T13:33:19.935Z,14.1
2023-03-20T13:34:35.012Z,14.2
2023-03-20T13:35:41.923Z,14
2023-03-20T13:36:53.846Z,13.9
2023-03-20T13:38:05.852Z,14
2023-03-20T13:39:15.441Z,13.9
2023-03-20T13:40:27.348Z,14
2023-03-20T13:41:37.090Z,14
2023-03-20T13:42:43.919Z,13.9
2023-03-20T13:44:01.168Z,13.8
2023-03-20T13:45:08.151Z,13.8
2023-03-20T13:46:17.844Z,13.8
2023-03-20T13:47:32.753Z,13.8
2023-03-20T13:48:40.441Z,13.6
2023-03-20T13:49:47.244Z,13.6
2023-03-20T13:51:01.912Z,13.7
2023-03-20T13:52:11.366Z,13.8
2023-03-20T13:53:18.175Z,13.6
2023-03-20T13:54:32.769Z,13.8
2023-03-20T13:55:49.959Z,13.8
2023-03-20T13:57:07.311Z,13.8
2023-03-20T13:58:24.592Z,14
2023-03-20T13:59:41.795Z,14
2023-03-20T14:00:59.044Z,14
2023-03-20T14:02:11.142Z,14
2023-03-20T14:03:37.494Z,14
2023-03-20T14:04:45.461Z,14
2023-03-20T14:05:56.725Z,13.9
2023-03-20T14:07:06.050Z,14
2023-03-20T14:08:22.460Z,14
2023-03-20T14:09:38.081Z,14
2023-03-20T14:10:45.048Z,14.1
2023-03-20T14:11:52.071Z,14.1
2023-03-20T14:12:58.964Z,14.1
2023-03-20T14:14:14.329Z,14.2
2023-03-20T14:15:21.709Z,14.2
2023-03-20T14:16:31.561Z,14.2
2023-03-20T14:17:38.506Z,14.1
2023-03-20T14:18:48.058Z,14.2
2023-03-20T14:19:54.962Z,14.2
2023-03-20T14:21:01.754Z,14.2
2023-03-20T14:22:08.757Z,14
2023-03-20T14:23:18.447Z,14
2023-03-20T14:24:25.414Z,13.9
2023-03-20T14:25:32.294Z,13.8
2023-03-20T14:26:39.092Z,13.8
2023-03-20T14:27:45.846Z,13.8
2023-03-20T14:29:00.972Z,13.9
2023-03-20T14:30:13.105Z,13.9
2023-03-20T14:31:25.114Z,13.9
2023-03-20T14:32:34.888Z,13.9
2023-03-20T14:33:41.678Z,14
2023-03-20T14:34:48.704Z,14
2023-03-20T14:35:55.546Z,14
2023-03-20T14:37:12.670Z,14
2023-03-20T14:38:28.510Z,14
2023-03-20T14:39:40.683Z,14.1
2023-03-20T14:40:57.760Z,13.9
2023-03-20T14:42:07.362Z,14
2023-03-20T14:43:23.473Z,14
2023-03-20T14:44:35.523Z,14
2023-03-20T14:45:50.118Z,14.1
2023-03-20T14:46:57.743Z,14.1
2023-03-20T14:48:09.668Z,14.1
2023-03-20T14:49:22.774Z,14.1
2023-03-20T14:50:38.046Z,14.2
2023-03-20T14:51:44.567Z,14.1
2023-03-20T14:52:51.441Z,14.1
2023-03-20T14:54:03.726Z,14.1
2023-03-20T14:55:21.521Z,14.1
2023-03-20T14:56:28.393Z,14
2023-03-20T14:57:48.923Z,14
2023-03-20T14:58:42.138Z,14.1
2023-03-20T14:59:54.184Z,14.2
2023-03-20T15:01:01.193Z,14.2
2023-03-20T15:02:08.000Z,14.2
2023-03-20T15:03:20.067Z,14.1
2023-03-20T15:04:27.024Z,14.2
2023-03-20T15:05:42.065Z,14.1
2023-03-20T15:06:48.922Z,14.2
2023-03-20T15:08:00.916Z,14.1
2023-03-20T15:09:10.836Z,13.9
2023-03-20T15:10:19.504Z,14.1
2023-03-20T15:11:24.616Z,14.2
2023-03-20T15:12:31.507Z,14.1
2023-03-20T15:13:38.363Z,14.2
2023-03-20T15:14:45.200Z,14.2
2023-03-20T15:15:57.221Z,14.2
2023-03-20T15:17:09.199Z,14.3
2023-03-20T15:18:19.024Z,14.2
2023-03-20T15:19:25.780Z,14.2
2023-03-20T15:20:32.668Z,14
2023-03-20T15:21:39.527Z,14.1
2023-03-20T15:22:46.465Z,14.1
2023-03-20T15:23:55.359Z,14.1
2023-03-20T15:25:03.155Z,14.1
2023-03-20T15:26:10.098Z,14.1
2023-03-20T15:27:16.967Z,14.2
2023-03-20T15:28:23.795Z,14.1
2023-03-20T15:29:30.664Z,14.1
2023-03-20T15:30:37.803Z,14.1
2023-03-20T15:31:44.389Z,14.1
2023-03-20T15:32:52.076Z,14
2023-03-20T15:33:58.878Z,14
2023-03-20T15:35:05.770Z,14
2023-03-20T15:36:20.540Z,14.1
2023-03-20T15:37:27.380Z,14.1
2023-03-20T15:38:34.322Z,14.1
2023-03-20T15:39:41.188Z,14.1
2023-03-20T15:40:51.959Z,14.2
2023-03-20T15:41:57.833Z,14.1
2023-03-20T15:43:04.685Z,14.1
2023-03-20T15:44:14.161Z,14.1
2023-03-20T15:45:29.092Z,14
2023-03-20T15:46:35.957Z,14.1
2023-03-20T15:47:43.657Z,14.1
2023-03-20T15:48:50.872Z,14.1